Time;durP1;ratioP1;P1;durP2;ratioP2;P2;SDS_P1;SDS_P2;PMS_P1;PMS_P2;Temp;Humidity;BMP_temperature;BMP_pressure;BME280_temperature;BME280_humidity;BME280_pressure;Samples;Min_cycle;Max_cycle;Signal;HPM_P1;HPM_P2
2020/12/02 00:02:30;;;;;;;7.68;2.00;;;24.60;14.00;;;;;;5106474;28;20161;-62
2020/12/02 00:04:59;;;;;;;;;;;24.50;14.10;;;;;;5111685;28;20548;-62
2020/12/02 00:07:29;;;;;;;11.57;2.20;;;24.40;14.70;;;;;;5109515;28;19960;-63
2020/12/02 00:09:57;;;;;;;15.52;3.83;;;24.30;15.10;;;;;;5107637;28;20075;-62
2020/12/02 00:12:25;;;;;;;14.38;3.30;;;24.10;14.90;;;;;;5105985;28;20084;-62
2020/12/02 00:14:52;;;;;;;11.93;2.80;;;24.10;15.90;;;;;;5108548;28;20068;-61
2020/12/02 00:17:21;;;;;;;22.48;3.92;;;24.00;15.70;;;;;;5110884;28;20072;-60
2020/12/02 00:19:52;;;;;;;12.35;4.00;;;23.80;16.30;;;;;;5111317;28;20079;-60
2020/12/02 00:22:23;;;;;;;26.60;5.07;;;23.60;17.00;;;;;;5105780;28;20159;-56
2020/12/02 00:24:53;;;;;;;27.80;4.88;;;23.40;17.70;;;;;;5107514;28;20080;-63
2020/12/02 00:27:27;;;;;;;26.38;5.40;;;23.20;17.60;;;;;;5107767;28;20076;-62
2020/12/02 00:29:54;;;;;;;29.27;5.47;;;23.00;18.50;;;;;;5104759;28;20057;-60
2020/12/02 00:32:33;;;;;;;15.07;4.20;;;22.80;18.10;;;;;;5105348;28;20076;-58
2020/12/02 00:35:00;;;;;;;24.70;4.53;;;22.70;18.30;;;;;;5101615;28;20464;-62
2020/12/02 00:37:28;;;;;;;18.95;4.57;;;22.50;19.00;;;;;;5106552;28;21056;-61
2020/12/02 00:39:56;;;;;;;30.45;4.72;;;22.20;19.30;;;;;;5106943;27;20604;-61
2020/12/02 00:42:23;;;;;;;23.85;4.57;;;22.10;19.30;;;;;;5111395;28;20112;-62
2020/12/02 00:44:50;;;;;;;32.10;5.40;;;21.90;19.10;;;;;;5111606;28;20654;-61
2020/12/02 00:47:24;;;;;;;22.10;4.70;;;21.70;19.80;;;;;;5112473;28;20072;-59
2020/12/02 00:49:56;;;;;;;23.60;5.18;;;21.50;20.30;;;;;;5114910;27;20520;-62
2020/12/02 00:52:24;;;;;;;31.67;5.38;;;21.40;20.80;;;;;;5100582;28;20080;-61
2020/12/02 00:54:51;;;;;;;23.77;5.72;;;21.20;21.40;;;;;;5114006;28;20082;-61
2020/12/02 00:57:27;;;;;;;39.05;5.72;;;21.10;21.20;;;;;;5113112;28;20075;-60
2020/12/02 00:59:56;;;;;;;35.78;5.60;;;20.90;21.40;;;;;;5112280;28;20108;-61
2020/12/02 01:02:44;;;;;;;36.33;5.90;;;20.70;21.60;;;;;;5111126;28;20096;-62
2020/12/02 01:05:16;;;;;;;40.55;6.10;;;20.60;22.10;;;;;;5117293;27;20065;-60
2020/12/02 01:07:44;;;;;;;36.33;6.57;;;20.40;21.80;;;;;;5110184;28;20068;-59
2020/12/02 01:10:12;;;;;;;47.25;7.63;;;20.20;22.50;;;;;;5113182;28;20163;-61
2020/12/02 01:12:43;;;;;;;41.50;8.15;;;20.10;22.80;;;;;;5112636;27;20076;-60
2020/12/02 01:15:11;;;;;;;38.42;8.25;;;20.00;23.00;;;;;;5114990;27;20099;-61
2020/12/02 01:17:38;;;;;;;41.72;7.60;;;19.90;23.30;;;;;;5110247;27;20119;-60
2020/12/02 01:20:10;;;;;;;37.78;8.20;;;19.80;23.30;;;;;;5111048;27;20072;-62
2020/12/02 01:22:40;;;;;;;45.15;8.48;;;19.60;23.50;;;;;;5110052;27;20191;-60
2020/12/02 01:25:22;;;;;;;29.88;7.90;;;19.50;23.60;;;;;;5109708;27;20125;-58
2020/12/02 01:28:03;;;;;;;41.47;8.20;;;19.40;23.70;;;;;;5109372;28;20077;-61
2020/12/02 01:30:31;;;;;;;38.20;8.48;;;19.30;24.20;;;;;;5114234;27;20151;-60
2020/12/02 01:32:58;;;;;;;31.38;9.35;;;19.20;24.20;;;;;;5112264;28;20083;-62
2020/12/02 01:35:27;;;;;;;37.65;9.15;;;19.10;24.30;;;;;;5112044;27;20145;-61
2020/12/02 01:38:03;;;;;;;53.85;9.50;;;18.90;24.50;;;;;;5109177;27;20103;-60
2020/12/02 01:40:32;;;;;;;50.95;10.18;;;18.80;24.70;;;;;;5093395;28;20253;-59
2020/12/02 01:43:03;;;;;;;52.45;10.95;;;18.80;25.50;;;;;;5097685;27;20072;-61
2020/12/02 01:45:33;;;;;;;50.70;11.38;;;18.70;25.60;;;;;;5110941;27;20076;-60
2020/12/02 01:48:22;;;;;;;53.47;12.07;;;18.60;26.30;;;;;;5110662;27;20121;-59
2020/12/02 01:50:57;;;;;;;64.30;12.73;;;18.50;26.20;;;;;;5128447;27;20145;-61
2020/12/02 01:53:41;;;;;;;45.03;12.02;;;18.40;26.70;;;;;;5111240;28;20071;-59
2020/12/02 01:56:21;;;;;;;54.30;12.50;;;18.50;36.80;;;;;;5114200;27;20125;-58
2020/12/02 01:59:22;;;;;;;58.78;12.50;;;18.20;26.70;;;;;;5109276;28;20163;-62
2020/12/02 02:01:49;;;;;;;63.58;12.82;;;;;;;;;;5107296;27;20564;-56
2020/12/02 02:04:18;;;;;;;;;;;18.00;28.60;;;;;;5114078;27;20141;-61
2020/12/02 02:06:51;;;;;;;68.88;14.07;;;18.30;50.90;;;;;;5110442;27;19962;-60
2020/12/02 02:09:17;;;;;;;60.47;16.73;;;19.40;31.00;;;;;;5113458;27;20157;-59
2020/12/02 02:11:43;;;;;;;;;;;;;;;;;;5096211;27;20034;-62
2020/12/02 02:14:28;;;;;;;63.08;14.52;;;;;;;;;;5110171;28;19971;-63
2020/12/02 02:16:55;;;;;;;64.15;14.63;;;17.60;27.50;;;;;;5113330;27;20030;-59
2020/12/02 02:19:26;;;;;;;77.93;15.40;;;17.30;34.30;;;;;;5113336;27;20064;-61
2020/12/02 02:21:57;;;;;;;112.07;17.20;;;17.50;28.50;;;;;;5117182;27;20095;-64
2020/12/02 02:24:24;;;;;;;87.00;14.77;;;17.50;28.50;;;;;;5111500;27;20072;-63
2020/12/02 02:26:55;;;;;;;97.03;17.95;;;17.40;28.40;;;;;;5111719;28;20072;-63
2020/12/02 02:29:30;;;;;;;89.63;17.52;;;17.40;29.20;;;;;;5107653;28;20072;-64
2020/12/02 02:32:02;;;;;;;99.88;17.50;;;17.30;29.10;;;;;;5111458;27;20067;-63
2020/12/02 02:34:31;;;;;;;228.95;26.45;;;17.30;28.90;;;;;;5107487;28;20157;-66
2020/12/02 02:37:00;;;;;;;176.73;23.42;;;17.30;29.60;;;;;;5110678;28;20072;-61
2020/12/02 02:39:27;;;;;;;182.05;23.33;;;17.30;30.00;;;;;;5109268;28;20076;-62
2020/12/02 02:42:00;;;;;;;;;;;17.20;29.40;;;;;;5083345;28;20131;-62
2020/12/02 02:44:28;;;;;;;118.80;21.75;;;17.10;29.50;;;;;;5103776;27;20493;-60
2020/12/02 02:46:55;;;;;;;85.07;20.90;;;17.10;30.30;;;;;;5113066;27;20107;-60
2020/12/02 02:49:22;;;;;;;121.15;22.20;;;17.10;29.80;;;;;;5097654;28;20076;-59
2020/12/02 02:51:49;;;;;;;106.75;21.58;;;17.00;30.30;;;;;;5107254;28;20436;-63
2020/12/02 02:54:16;;;;;;;100.43;20.08;;;17.00;30.00;;;;;;5118137;27;20072;-60
2020/12/02 02:56:43;;;;;;;116.05;22.27;;;16.90;30.20;;;;;;5113316;27;20070;-59
2020/12/02 02:59:10;;;;;;;;;;;16.90;30.80;;;;;;5115082;27;20075;-61
2020/12/02 03:01:43;;;;;;;76.05;18.05;;;16.80;30.90;;;;;;5109550;28;19980;-60
2020/12/02 03:04:10;;;;;;;87.82;19.65;;;16.70;30.80;;;;;;5118611;27;20087;-62
2020/12/02 03:06:37;;;;;;;74.30;17.75;;;16.70;31.80;;;;;;5111057;27;20104;-60
2020/12/02 03:09:06;;;;;;;73.70;18.55;;;16.60;30.90;;;;;;5112611;27;20064;-62
2020/12/02 03:11:33;;;;;;;75.13;19.35;;;16.50;31.30;;;;;;5099035;28;20130;-62
2020/12/02 03:14:00;;;;;;;85.80;21.88;;;16.50;31.40;;;;;;5114554;27;20060;-65
2020/12/02 03:16:40;;;;;;;76.85;20.05;;;16.50;31.70;;;;;;5113942;27;20079;-63
2020/12/02 03:19:28;;;;;;;75.30;19.50;;;16.40;31.80;;;;;;5111544;27;20065;-63
2020/12/02 03:21:59;;;;;;;97.03;21.70;;;16.30;31.60;;;;;;5112178;27;20092;-63
2020/12/02 03:24:26;;;;;;;74.45;21.33;;;16.30;32.10;;;;;;5112617;27;20410;-62
2020/12/02 03:26:53;;;;;;;78.25;19.85;;;16.20;32.20;;;;;;5110890;28;20088;-63
2020/12/02 03:29:20;;;;;;;;;;;16.20;32.60;;;;;;5114147;27;20068;-63
2020/12/02 03:31:46;;;;;;;86.23;22.73;;;16.20;32.50;;;;;;5110980;28;20319;-63
2020/12/02 03:34:14;;;;;;;;;;;16.10;32.60;;;;;;5110396;28;20361;-62
2020/12/02 03:36:40;;;;;;;72.10;21.00;;;16.10;32.90;;;;;;5110715;28;19991;-62
2020/12/02 03:39:09;;;;;;;74.13;18.10;;;16.00;33.30;;;;;;5113003;27;20191;-64
2020/12/02 03:41:37;;;;;;;68.68;18.23;;;16.00;32.50;;;;;;5098713;27;20092;-62
2020/12/02 03:44:05;;;;;;;53.85;15.55;;;15.90;31.70;;;;;;5110270;28;20080;-64
2020/12/02 03:46:32;;;;;;;47.67;14.93;;;15.90;31.60;;;;;;5110082;28;20121;-64
2020/12/02 03:48:59;;;;;;;55.60;15.18;;;15.80;32.00;;;;;;5110416;28;20151;-62
2020/12/02 03:51:26;;;;;;;53.88;15.05;;;15.80;31.90;;;;;;5108744;28;20079;-63
2020/12/02 03:53:53;;;;;;;56.88;14.68;;;15.80;32.40;;;;;;5109322;28;20076;-62
2020/12/02 03:56:20;;;;;;;61.30;16.45;;;15.70;32.80;;;;;;5084985;27;20072;-62
2020/12/02 03:58:48;;;;;;;83.32;22.02;;;15.50;31.90;;;;;;5110101;28;20080;-63
2020/12/02 04:01:16;;;;;;;76.05;22.05;;;15.50;31.70;;;;;;5090614;28;20108;-59
2020/12/02 04:03:42;;;;;;;80.18;21.48;;;15.50;31.40;;;;;;5103608;28;20065;-56
2020/12/02 04:06:10;;;;;;;100.45;23.15;;;15.50;31.30;;;;;;5102623;28;20076;-62
2020/12/02 04:08:41;;;;;;;82.63;20.85;;;15.50;30.90;;;;;;5109284;28;20485;-62
2020/12/02 04:11:09;;;;;;;90.32;20.30;;;15.50;30.90;;;;;;5110050;28;20183;-61
2020/12/02 04:13:36;;;;;;;79.45;20.23;;;15.50;30.40;;;;;;5105198;28;20524;-61
2020/12/02 04:16:03;;;;;;;72.43;18.48;;;15.50;30.50;;;;;;5105350;28;20080;-59
2020/12/02 04:18:30;;;;;;;83.80;17.52;;;15.50;31.40;;;;;;5107168;28;20151;-60
2020/12/02 04:20:57;;;;;;;80.03;19.13;;;15.50;31.30;;;;;;5101999;28;20092;-59
2020/12/02 04:23:23;;;;;;;;;;;15.50;31.60;;;;;;5100177;28;20067;-63
2020/12/02 04:25:51;;;;;;;87.50;21.33;;;15.40;31.80;;;;;;5109554;28;19963;-61
2020/12/02 04:28:18;;;;;;;96.90;21.55;;;15.40;32.20;;;;;;5099397;28;20463;-60
2020/12/02 04:30:46;;;;;;;100.50;23.15;;;15.40;32.70;;;;;;5090876;28;20076;-58
2020/12/02 04:33:13;;;;;;;97.03;23.33;;;15.30;33.10;;;;;;5101757;28;20408;-60
2020/12/02 04:35:40;;;;;;;88.10;22.10;;;15.20;32.70;;;;;;5104580;28;20137;-62
2020/12/02 04:38:08;;;;;;;;;;;15.20;33.30;;;;;;5103422;28;20099;-59
2020/12/02 04:40:38;;;;;;;80.85;20.92;;;15.10;33.20;;;;;;5099486;28;20002;-60
2020/12/02 04:43:34;;;;;;;106.03;23.90;;;15.20;33.70;;;;;;5107565;28;20076;-59
2020/12/02 04:46:03;;;;;;;94.85;23.42;;;15.10;34.30;;;;;;5097539;28;20103;-61
2020/12/02 04:48:32;;;;;;;95.40;22.38;;;15.00;34.40;;;;;;5105157;28;20096;-61
2020/12/02 04:51:07;;;;;;;86.25;20.73;;;15.00;34.10;;;;;;5106400;28;20436;-62
2020/12/02 04:53:37;;;;;;;78.70;18.05;;;14.90;34.50;;;;;;5099945;28;20083;-60
2020/12/02 04:56:04;;;;;;;77.70;20.00;;;14.80;34.30;;;;;;5104464;28;20155;-62
2020/12/02 04:58:30;;;;;;;89.53;22.52;;;14.80;33.90;;;;;;5109088;28;20072;-61
2020/12/02 05:01:31;;;;;;;83.18;21.48;;;14.80;34.30;;;;;;5090897;28;20116;-63
2020/12/02 05:03:57;;;;;;;71.22;20.65;;;14.80;34.70;;;;;;5108280;28;20075;-61
2020/12/02 05:06:50;;;;;;;;;;;14.70;35.00;;;;;;5108111;28;20084;-60
2020/12/02 05:09:25;;;;;;;80.20;19.60;;;14.70;35.60;;;;;;5105368;28;20067;-61
2020/12/02 05:12:20;;;;;;;72.32;18.33;;;14.70;35.40;;;;;;5109185;28;20504;-61
2020/12/02 05:14:48;;;;;;;73.28;17.63;;;14.70;36.00;;;;;;5100423;28;20075;-61
2020/12/02 05:17:26;;;;;;;82.18;18.70;;;14.60;36.40;;;;;;5102322;28;20080;-61
2020/12/02 05:20:15;;;;;;;69.20;16.45;;;14.60;36.70;;;;;;5104051;28;20067;-60
2020/12/02 05:22:45;;;;;;;72.60;17.58;;;14.50;36.60;;;;;;5104023;28;20122;-62
2020/12/02 05:25:33;;;;;;;72.20;16.50;;;14.50;36.20;;;;;;5106097;28;20151;-61
2020/12/02 05:28:23;;;;;;;76.60;16.20;;;14.50;36.30;;;;;;5085010;28;20484;-62
2020/12/02 05:31:06;;;;;;;61.58;16.83;;;14.50;36.40;;;;;;5107198;28;20087;-59
2020/12/02 05:33:35;;;;;;;63.28;14.57;;;14.40;37.70;;;;;;5107616;28;20072;-61
2020/12/02 05:36:12;;;;;;;64.85;13.73;;;14.40;37.90;;;;;;5109731;28;20083;-62
2020/12/02 05:38:44;;;;;;;53.13;15.32;;;14.30;37.70;;;;;;5109591;28;20087;-60
2020/12/02 05:41:16;;;;;;;45.60;13.77;;;14.30;37.40;;;;;;5110744;28;20088;-61
2020/12/02 05:44:09;;;;;;;59.63;14.45;;;14.20;37.80;;;;;;5104447;28;20076;-61
2020/12/02 05:46:47;;;;;;;68.68;16.02;;;14.20;38.00;;;;;;5072498;28;20114;-62
2020/12/02 05:49:45;;;;;;;57.25;16.60;;;14.10;38.30;;;;;;5109058;28;20483;-60
2020/12/02 05:52:19;;;;;;;59.00;14.40;;;14.10;38.60;;;;;;5109436;28;20606;-62
2020/12/02 05:54:49;;;;;;;69.68;16.02;;;14.10;38.80;;;;;;5090104;28;20095;-62
2020/12/02 05:57:18;;;;;;;56.53;16.92;;;14.00;38.80;;;;;;5103698;28;20098;-62
2020/12/02 06:00:00;;;;;;;65.32;17.77;;;14.00;38.40;;;;;;5108418;28;20105;-62
2020/12/02 06:02:29;;;;;;;77.00;16.83;;;14.00;38.60;;;;;;5106137;28;20104;-61
2020/12/02 06:04:57;;;;;;;67.07;16.67;;;14.00;38.90;;;;;;5107731;28;20546;-61
2020/12/02 06:07:25;;;;;;;62.33;17.20;;;14.00;39.30;;;;;;5077025;28;20080;-61
2020/12/02 06:09:57;;;;;;;60.78;17.23;;;13.90;39.30;;;;;;5093849;28;20121;-60
2020/12/02 06:12:40;;;;;;;74.07;18.92;;;13.90;39.40;;;;;;5091930;28;20068;-62
2020/12/02 06:15:21;;;;;;;70.65;17.58;;;13.90;39.80;;;;;;5096135;28;20281;-61
2020/12/02 06:17:48;;;;;;;59.65;15.85;;;13.90;39.70;;;;;;5102979;28;20072;-61
2020/12/02 06:20:15;;;;;;;73.07;14.70;;;13.90;40.10;;;;;;5085677;28;20203;-63
2020/12/02 06:22:53;;;;;;;58.45;13.52;;;13.80;40.20;;;;;;5119821;27;20153;-61
2020/12/02 06:25:55;;;;;;;57.00;11.60;;;13.60;39.20;;;;;;5107958;28;20073;-62
2020/12/02 06:28:31;;;;;;;50.60;12.35;;;13.60;39.90;;;;;;5104984;28;20087;-61
2020/12/02 06:31:08;;;;;;;50.83;12.35;;;13.60;39.90;;;;;;5103290;28;20095;-59
2020/12/02 06:33:37;;;;;;;54.50;12.23;;;13.60;40.60;;;;;;5108550;28;20068;-61
2020/12/02 06:36:11;;;;;;;54.33;13.13;;;13.50;40.80;;;;;;5110516;28;20095;-61
2020/12/02 06:38:38;;;;;;;79.95;14.90;;;13.50;40.60;;;;;;5090025;28;20084;-61
2020/12/02 06:41:40;;;;;;;57.80;14.18;;;13.40;41.00;;;;;;5105780;28;20096;-61
2020/12/02 06:44:13;;;;;;;63.67;15.55;;;13.40;41.10;;;;;;5078340;28;20092;-61
2020/12/02 06:46:48;;;;;;;65.97;17.23;;;13.30;41.10;;;;;;5076803;28;20160;-61
2020/12/02 06:49:17;;;;;;;68.80;18.88;;;13.30;40.60;;;;;;5099501;28;20178;-59
2020/12/02 06:52:01;;;;;;;84.05;20.52;;;13.30;40.50;;;;;;5086973;28;20085;-62
2020/12/02 06:54:33;;;;;;;105.32;20.65;;;13.30;40.60;;;;;;5102206;28;20069;-62
2020/12/02 06:57:24;;;;;;;101.25;21.33;;;13.20;40.00;;;;;;5074596;28;20137;-61
2020/12/02 06:59:56;;;;;;;100.97;22.42;;;13.30;40.20;;;;;;5082589;28;20143;-62
2020/12/02 07:02:53;;;;;;;114.80;22.40;;;13.20;39.80;;;;;;5079005;28;20162;-63
2020/12/02 07:05:43;;;;;;;102.55;24.17;;;13.20;39.70;;;;;;5106793;28;20175;-61
2020/12/02 07:08:18;;;;;;;115.75;26.70;;;13.20;40.00;;;;;;5111415;28;20065;-60
2020/12/02 07:11:01;;;;;;;112.30;27.35;;;13.20;40.10;;;;;;5105918;27;20160;-61
2020/12/02 07:13:31;;;;;;;108.82;24.33;;;13.10;40.00;;;;;;5083811;28;20133;-60
2020/12/02 07:15:57;;;;;;;112.15;24.33;;;13.10;40.10;;;;;;5080572;28;20175;-61
2020/12/02 07:18:25;;;;;;;;;;;13.10;40.10;;;;;;5111322;28;20076;-60
2020/12/02 07:21:24;;;;;;;111.72;24.88;;;13.10;40.60;;;;;;5101600;28;20021;-60
2020/12/02 07:23:52;;;;;;;110.32;24.92;;;13.10;40.70;;;;;;5100606;28;20130;-62
2020/12/02 07:26:20;;;;;;;114.32;26.33;;;13.10;40.80;;;;;;5105284;28;20072;-60
2020/12/02 07:28:55;;;;;;;92.05;22.00;;;13.00;40.40;;;;;;5107035;28;20075;-62
2020/12/02 07:31:24;;;;;;;102.95;23.67;;;12.90;40.50;;;;;;5108257;28;20539;-60
2020/12/02 07:34:01;;;;;;;90.63;23.45;;;13.00;40.50;;;;;;5102613;28;20153;-61
2020/12/02 07:36:34;;;;;;;112.13;24.17;;;13.00;40.40;;;;;;5101734;28;20113;-61
2020/12/02 07:39:14;;;;;;;99.35;25.52;;;13.00;41.00;;;;;;5078927;28;20131;-62
2020/12/02 07:41:57;;;;;;;111.07;27.77;;;13.00;40.70;;;;;;5096342;28;20098;-60
2020/12/02 07:44:25;;;;;;;124.07;26.10;;;12.90;41.30;;;;;;5105480;28;20106;-58
2020/12/02 07:46:56;;;;;;;118.47;26.80;;;12.80;41.50;;;;;;5108458;28;20074;-60
2020/12/02 07:49:23;;;;;;;117.53;28.73;;;12.90;40.40;;;;;;5110500;28;20130;-61
2020/12/02 07:52:13;;;;;;;132.65;28.02;;;12.90;40.00;;;;;;5108336;28;21550;-61
2020/12/02 07:54:40;;;;;;;112.13;28.75;;;12.90;39.40;;;;;;5103682;28;20136;-61
2020/12/02 07:57:11;;;;;;;122.22;29.88;;;12.90;39.40;;;;;;5109206;28;20092;-62
2020/12/02 07:59:40;;;;;;;115.97;29.73;;;13.00;39.30;;;;;;5111199;28;20101;-60
2020/12/02 08:02:17;;;;;;;143.90;33.47;;;13.00;38.70;;;;;;5111796;27;20543;-59
2020/12/02 08:04:54;;;;;;;154.35;33.17;;;13.00;38.00;;;;;;5102501;28;20133;-59
2020/12/02 08:07:22;;;;;;;139.82;32.22;;;13.00;38.10;;;;;;5105811;28;20068;-62
2020/12/02 08:09:51;;;;;;;139.43;31.30;;;12.90;37.80;;;;;;5109985;28;20563;-59
2020/12/02 08:12:20;;;;;;;135.68;31.80;;;12.90;37.70;;;;;;5089691;28;20079;-58
2020/12/02 08:14:59;;;;;;;131.98;32.88;;;12.90;37.90;;;;;;5110356;28;20082;-62
2020/12/02 08:17:28;;;;;;;133.57;30.80;;;12.90;38.10;;;;;;5109187;28;20091;-62
2020/12/02 08:20:00;;;;;;;113.90;28.88;;;12.90;38.20;;;;;;5110092;28;20506;-59
2020/12/02 08:22:39;;;;;;;134.40;30.27;;;12.80;38.30;;;;;;5109415;28;20092;-62
2020/12/02 08:25:25;;;;;;;111.80;29.77;;;12.70;37.80;;;;;;5106000;28;20121;-61
2020/12/02 08:28:00;;;;;;;124.20;30.08;;;12.70;37.60;;;;;;5109541;28;20543;-62
2020/12/02 08:30:29;;;;;;;128.95;29.35;;;12.70;37.50;;;;;;5100034;28;20072;-62
2020/12/02 08:33:02;;;;;;;143.10;30.67;;;12.60;38.00;;;;;;5099537;28;20413;-63
2020/12/02 08:35:46;;;;;;;114.22;29.05;;;12.60;37.90;;;;;;5109645;28;20536;-62
2020/12/02 08:38:30;;;;;;;131.93;28.05;;;12.50;37.70;;;;;;5110140;28;20083;-61
2020/12/02 08:40:58;;;;;;;127.63;30.13;;;12.50;37.70;;;;;;5108186;28;20606;-60
2020/12/02 08:43:25;;;;;;;136.02;30.23;;;12.40;37.50;;;;;;5108591;28;20190;-61
2020/12/02 08:46:02;;;;;;;104.22;28.02;;;12.40;38.10;;;;;;5110184;28;20076;-61
2020/12/02 08:48:28;;;;;;;;;;;12.40;36.80;;;;;;5109597;28;20079;-60
2020/12/02 08:50:55;;;;;;;109.43;28.05;;;12.30;36.50;;;;;;5108757;28;20054;-61
2020/12/02 08:53:33;;;;;;;135.05;30.35;;;12.20;37.00;;;;;;5100356;28;20080;-58
2020/12/02 08:55:59;;;;;;;;;;;12.20;36.40;;;;;;5098240;28;20111;-58
2020/12/02 08:58:26;;;;;;;113.80;26.90;;;12.10;36.10;;;;;;5082821;28;19967;-61
2020/12/02 09:00:53;;;;;;;110.43;28.33;;;12.10;35.30;;;;;;5085630;28;20108;-61
2020/12/02 09:03:22;;;;;;;105.35;27.67;;;13.10;53.70;;;;;;5087020;28;20024;-57
2020/12/02 09:05:49;;;;;;;110.55;27.15;;;;;;;;;;5084931;28;20400;-60
2020/12/02 09:08:15;;;;;;;;;;;;;;;;;;5085438;28;20020;-60
2020/12/02 09:10:42;;;;;;;113.60;25.70;;;;;;;;;;5086701;28;19931;-60
2020/12/02 09:13:08;;;;;;;;;;;;;;;;;;5084381;28;20526;-60
2020/12/02 09:15:35;;;;;;;95.30;25.60;;;;;;;;;;5085702;28;20364;-60
2020/12/02 09:18:01;;;;;;;;;;;;;;;;;;5086422;28;20111;-61
2020/12/02 09:20:27;;;;;;;90.05;22.95;;;;;;;;;;5083915;28;20372;-57
2020/12/02 09:22:54;;;;;;;97.03;23.10;;;;;;;;;;5088227;28;20043;-61
2020/12/02 09:25:21;;;;;;;105.50;24.23;;;;;;;;;;5086668;28;20055;-61
2020/12/02 09:27:48;;;;;;;94.65;24.35;;;12.80;36.30;;;;;;5086774;28;20035;-60
2020/12/02 09:30:14;;;;;;;;;;;12.20;42.10;;;;;;5086088;28;20041;-60
2020/12/02 09:32:40;;;;;;;86.57;23.73;;;12.00;50.20;;;;;;5083804;28;20062;-57
2020/12/02 09:35:07;;;;;;;87.18;24.00;;;12.00;41.70;;;;;;5083903;28;20538;-60
2020/12/02 09:37:35;;;;;;;100.50;24.75;;;12.10;50.70;;;;;;5078221;28;20075;-61
2020/12/02 09:40:07;;;;;;;94.40;24.23;;;12.10;34.50;;;;;;5084321;28;20131;-61
2020/12/02 09:43:06;;;;;;;85.28;21.13;;;12.10;70.80;;;;;;5069331;28;20088;-59
2020/12/02 09:45:54;;;;;;;82.72;21.67;;;12.10;35.70;;;;;;5086193;28;20031;-60
2020/12/02 09:48:26;;;;;;;86.10;22.80;;;;;;;;;;5064551;28;20024;-62
2020/12/02 09:50:52;;;;;;;91.20;22.10;;;12.00;34.10;;;;;;5085843;28;20034;-61
2020/12/02 09:53:23;;;;;;;81.30;21.67;;;12.00;33.30;;;;;;5082467;28;20104;-59
2020/12/02 09:55:50;;;;;;;79.85;22.92;;;12.00;33.70;;;;;;5085543;28;20514;-61
2020/12/02 09:58:18;;;;;;;85.20;22.48;;;11.90;34.30;;;;;;5084472;28;20528;-58
2020/12/02 10:00:44;;;;;;;92.63;21.10;;;11.70;33.20;;;;;;5089147;28;20104;-60
2020/12/02 10:03:41;;;;;;;80.75;21.60;;;11.80;33.90;;;;;;5091260;28;20125;-58
2020/12/02 10:06:45;;;;;;;68.15;20.35;;;11.80;33.60;;;;;;5091745;28;20068;-58
2020/12/02 10:09:32;;;;;;;78.80;20.80;;;11.90;33.30;;;;;;5092856;28;20468;-59
2020/12/02 10:12:16;;;;;;;;;;;11.90;34.40;;;;;;5092596;28;20124;-61
2020/12/02 10:14:52;;;;;;;78.68;19.33;;;11.90;34.80;;;;;;5086398;28;20047;-55
2020/12/02 10:17:41;;;;;;;72.00;21.07;;;11.90;34.10;;;;;;5074077;28;20072;-60
2020/12/02 10:20:40;;;;;;;72.78;18.00;;;11.80;33.90;;;;;;5073514;28;20130;-60
2020/12/02 10:23:24;;;;;;;59.53;17.40;;;11.80;33.40;;;;;;5091302;28;20081;-60
2020/12/02 10:26:03;;;;;;;63.85;17.80;;;11.80;33.60;;;;;;5092314;28;20458;-61
2020/12/02 10:28:37;;;;;;;59.20;17.30;;;11.80;33.80;;;;;;5091837;28;20126;-58
2020/12/02 10:31:09;;;;;;;63.00;18.17;;;11.80;33.90;;;;;;5092534;28;20431;-60
2020/12/02 10:33:49;;;;;;;56.65;15.75;;;11.80;33.70;;;;;;5091180;28;20069;-61
2020/12/02 10:36:16;;;;;;;53.15;16.30;;;11.50;45.20;;;;;;5091701;28;20073;-59
2020/12/02 10:38:50;;;;;;;54.50;16.60;;;11.70;33.90;;;;;;5072917;28;20075;-60
2020/12/02 10:41:23;;;;;;;55.10;17.02;;;11.70;34.00;;;;;;5090916;28;20103;-61
2020/12/02 10:44:04;;;;;;;49.92;17.25;;;11.70;34.10;;;;;;5091198;28;20073;-57
2020/12/02 10:47:17;;;;;;;38.67;15.32;;;11.60;34.40;;;;;;5091938;28;20069;-56
2020/12/02 10:49:47;;;;;;;57.53;17.35;;;11.60;34.80;;;;;;5065683;28;20518;-61
2020/12/02 10:52:16;;;;;;;51.28;16.40;;;11.60;35.20;;;;;;5090311;28;20076;-59
2020/12/02 10:54:47;;;;;;;55.25;16.25;;;11.40;35.00;;;;;;5090402;28;20072;-60
2020/12/02 10:57:22;;;;;;;53.58;16.20;;;11.30;34.90;;;;;;5091367;28;20068;-60
2020/12/02 10:59:57;;;;;;;45.03;15.32;;;11.20;34.10;;;;;;5096124;28;20186;-60
2020/12/02 11:02:28;;;;;;;63.20;16.38;;;11.30;33.90;;;;;;5128544;27;20617;-59
2020/12/02 11:04:55;;;;;;;58.17;15.18;;;11.40;34.40;;;;;;5119192;27;20072;-60
2020/12/02 11:07:46;;;;;;;47.35;14.10;;;11.40;34.50;;;;;;5113403;27;20504;-60
2020/12/02 11:10:37;;;;;;;39.47;14.07;;;11.40;34.00;;;;;;5113921;27;20209;-60
2020/12/02 11:13:21;;;;;;;40.63;14.38;;;11.40;33.40;;;;;;5110790;28;20071;-58
2020/12/02 11:16:05;;;;;;;43.78;12.85;;;11.30;33.10;;;;;;5113645;27;20064;-59
2020/12/02 11:19:16;;;;;;;43.58;13.40;;;11.20;32.50;;;;;;5110644;27;20083;-58
2020/12/02 11:21:56;;;;;;;43.88;12.95;;;11.20;32.00;;;;;;5075878;28;20562;-59
2020/12/02 11:24:44;;;;;;;45.55;14.15;;;11.20;31.80;;;;;;5112712;27;20099;-61
2020/12/02 11:27:11;;;;;;;36.90;13.45;;;11.10;32.00;;;;;;5095448;27;20083;-60
2020/12/02 11:29:37;;;;;;;44.42;14.07;;;11.10;31.20;;;;;;5115912;27;20080;-60
2020/12/02 11:32:03;;;;;;;;;;;11.30;31.30;;;;;;5116999;27;20068;-62
2020/12/02 11:34:43;;;;;;;48.28;14.90;;;11.30;31.40;;;;;;5116287;27;19991;-60
2020/12/02 11:37:15;;;;;;;47.35;13.75;;;11.20;32.20;;;;;;5112163;27;21648;-59
2020/12/02 11:40:09;;;;;;;39.78;14.30;;;11.20;32.30;;;;;;5092896;28;20090;-58
2020/12/02 11:43:13;;;;;;;45.50;13.57;;;11.10;33.00;;;;;;5112736;27;20196;-60
2020/12/02 11:45:44;;;;;;;40.40;13.65;;;11.10;33.50;;;;;;5111668;27;20073;-59
2020/12/02 11:48:41;;;;;;;40.85;12.48;;;11.00;34.20;;;;;;5112108;27;20167;-60
2020/12/02 11:51:22;;;;;;;40.85;13.40;;;11.00;34.50;;;;;;5115719;27;20458;-59
2020/12/02 11:53:55;;;;;;;44.03;14.20;;;10.60;58.40;;;;;;5115982;27;20067;-59
2020/12/02 11:56:43;;;;;;;47.22;13.10;;;10.90;34.30;;;;;;5113918;27;20072;-59
2020/12/02 11:59:17;;;;;;;39.88;12.93;;;11.00;71.70;;;;;;5110784;28;20090;-60
2020/12/02 12:01:53;;;;;;;37.60;12.18;;;10.80;38.00;;;;;;5115287;28;20119;-61
2020/12/02 12:04:36;;;;;;;36.80;11.77;;;10.80;33.10;;;;;;5115310;27;20431;-61
2020/12/02 12:07:18;;;;;;;38.42;12.50;;;10.60;32.90;;;;;;5097845;27;20083;-60
2020/12/02 12:09:57;;;;;;;47.03;12.48;;;10.60;33.00;;;;;;5112764;28;20439;-59
2020/12/02 12:12:46;;;;;;;32.97;10.38;;;10.70;33.50;;;;;;5112390;28;20079;-60
2020/12/02 12:15:19;;;;;;;38.83;11.30;;;10.70;33.70;;;;;;5115027;28;20094;-59
2020/12/02 12:17:48;;;;;;;33.80;11.63;;;10.80;33.80;;;;;;5112983;28;20099;-57
2020/12/02 12:20:30;;;;;;;44.70;10.90;;;10.70;33.40;;;;;;5095347;28;20068;-59
2020/12/02 12:23:28;;;;;;;36.55;11.15;;;10.80;34.30;;;;;;5114951;28;20099;-61
2020/12/02 12:25:55;;;;;;;;;;;10.80;34.40;;;;;;5106808;28;20114;-57
2020/12/02 12:28:26;;;;;;;35.97;10.25;;;10.80;34.80;;;;;;5113788;28;19964;-58
2020/12/02 12:30:58;;;;;;;27.40;10.05;;;10.70;34.90;;;;;;5114172;28;20075;-61
2020/12/02 12:33:47;;;;;;;37.67;10.38;;;10.70;35.50;;;;;;5116706;27;20080;-61
2020/12/02 12:36:21;;;;;;;23.48;10.13;;;10.70;35.10;;;;;;5119803;27;20092;-61
2020/12/02 12:39:03;;;;;;;32.75;10.15;;;10.70;35.10;;;;;;5119882;27;20083;-60
2020/12/02 12:41:46;;;;;;;30.90;10.20;;;10.60;35.00;;;;;;5114472;27;20170;-61
2020/12/02 12:44:27;;;;;;;34.72;10.73;;;10.50;34.90;;;;;;5117641;27;20601;-60
2020/12/02 12:47:06;;;;;;;39.92;9.73;;;10.50;34.80;;;;;;5117620;27;20592;-60
2020/12/02 12:49:33;;;;;;;36.58;9.57;;;10.60;34.90;;;;;;5117652;27;20088;-61
2020/12/02 12:52:03;;;;;;;38.78;9.40;;;10.60;41.00;;;;;;5113456;28;20076;-61
2020/12/02 12:54:30;;;;;;;30.27;8.55;;;10.40;48.80;;;;;;5115264;27;20067;-61
2020/12/02 12:56:59;;;;;;;37.13;8.00;;;10.30;60.50;;;;;;5114319;27;20072;-61
2020/12/02 12:59:26;;;;;;;33.30;7.93;;;10.50;51.30;;;;;;5115785;27;20414;-58
2020/12/02 13:01:57;;;;;;;25.83;7.15;;;10.40;75.40;;;;;;5120157;27;20451;-60
2020/12/02 13:04:26;;;;;;;22.77;6.57;;;10.50;40.60;;;;;;5124196;27;20019;-59
2020/12/02 13:07:10;;;;;;;29.58;7.78;;;10.50;47.80;;;;;;5121253;27;20076;-56
2020/12/02 13:09:44;;;;;;;28.42;7.00;;;;;;;;;;5117028;27;20556;-59
2020/12/02 13:12:20;;;;;;;24.75;6.53;;;10.60;64.80;;;;;;5123488;27;20027;-59
2020/12/02 13:14:55;;;;;;;23.60;6.85;;;10.50;48.40;;;;;;5121588;27;20091;-60